To NAV CANADA Home Page Login to a new session Search on AWWS site Feedback and Comments Disclaimer Vers la page française équivalente Tips FAQ What's new on the site To the Forecasts and Observations / NOTAM section To "File a Flight Plan" website Publications and other links Update of the User's profile FIC Telephone Numbers My Weather Data Folder Route Weather Data Regional Weather Data Local Weather Data To the Forecasts and Observations / NOTAM section
Request Generated 05/25/2017 at 01:09:19 UTC . Weather information available at that time is displayed.

METAR/TAF

TRENTON/ON    

METAR CYTR 250100Z 09003KT 15SM BKN072 BKN240 20/12 A2969 RMK AC5CI2 SLP055=
METAR CYTR 250000Z 08003KT 15SM FEW150 BKN240 22/12 A2967 RMK AC2CI5 SLP050=
METAR CYTR 242300Z 09005KT 15SM FEW048 FEW150 BKN240 23/12 A2967 RMK SC1AC2CI4 SLP050=

TAF CYTR 242330Z 2500/2524 09008KT P6SM SCT050 BKN160
FM250200 08010KT P6SM BKN050 OVC120 TEMPO 2509/2515 P6SM -RA
FM251500 08012G22KT P6SM -RA SCT015 OVC030 TEMPO 2515/2524 4SM
-RA BR SCT008 OVC015
RMK NXT FCST BY 250600Z=
Your time UTC time
Weather data provided by Environment Canada and NAV CANADA